sensor_id;sensor_type;location;lat;lon;timestamp;pressure;altitude;pressure_sealevel;temperature;humidity
64683;BME280;51107;47.652;19.016;2023-04-19T00:00:46;99888.41;;;12.79;48.41
64683;BME280;51107;47.652;19.016;2023-04-19T00:03:16;99889.88;;;12.73;48.86
64683;BME280;51107;47.652;19.016;2023-04-19T00:05:44;99881.69;;;12.76;49.51
64683;BME280;51107;47.652;19.016;2023-04-19T00:08:14;99882.00;;;12.65;48.41
64683;BME280;51107;47.652;19.016;2023-04-19T00:10:42;99876.47;;;12.68;48.90
64683;BME280;51107;47.652;19.016;2023-04-19T00:13:10;99870.25;;;12.61;48.49
64683;BME280;51107;47.652;19.016;2023-04-19T00:15:39;99876.47;;;12.68;48.37
64683;BME280;51107;47.652;19.016;2023-04-19T00:18:08;99872.19;;;12.58;49.25
64683;BME280;51107;47.652;19.016;2023-04-19T00:20:37;99875.97;;;12.72;48.22
64683;BME280;51107;47.652;19.016;2023-04-19T00:23:06;99866.31;;;12.56;48.53
64683;BME280;51107;47.652;19.016;2023-04-19T00:25:35;99866.97;;;12.58;49.16
64683;BME280;51107;47.652;19.016;2023-04-19T00:28:03;99864.69;;;12.55;49.38
64683;BME280;51107;47.652;19.016;2023-04-19T00:30:32;99859.62;;;12.54;48.97
64683;BME280;51107;47.652;19.016;2023-04-19T00:33:00;99860.41;;;12.46;48.58
64683;BME280;51107;47.652;19.016;2023-04-19T00:35:28;99857.47;;;12.33;50.08
64683;BME280;51107;47.652;19.016;2023-04-19T00:37:57;99859.72;;;12.28;49.34
64683;BME280;51107;47.652;19.016;2023-04-19T00:40:26;99862.97;;;12.21;49.39
64683;BME280;51107;47.652;19.016;2023-04-19T00:42:55;99854.50;;;12.28;47.83
64683;BME280;51107;47.652;19.016;2023-04-19T00:45:24;99853.84;;;12.26;48.51
64683;BME280;51107;47.652;19.016;2023-04-19T00:47:52;99851.56;;;12.22;49.36
64683;BME280;51107;47.652;19.016;2023-04-19T00:50:21;99859.41;;;12.31;48.04
64683;BME280;51107;47.652;19.016;2023-04-19T00:52:51;99855.00;;;12.31;48.17
64683;BME280;51107;47.652;19.016;2023-04-19T00:55:22;99845.03;;;12.27;47.92
64683;BME280;51107;47.652;19.016;2023-04-19T00:57:51;99846.00;;;12.26;48.04
64683;BME280;51107;47.652;19.016;2023-04-19T01:00:19;99852.69;;;12.28;47.32
64683;BME280;51107;47.652;19.016;2023-04-19T01:02:47;99840.31;;;12.30;47.16
64683;BME280;51107;47.652;19.016;2023-04-19T01:05:18;99850.75;;;12.22;46.92
64683;BME280;51107;47.652;19.016;2023-04-19T01:07:47;99846.28;;;12.06;48.18
64683;BME280;51107;47.652;19.016;2023-04-19T01:10:15;99837.97;;;12.19;47.91
64683;BME280;51107;47.652;19.016;2023-04-19T01:12:44;99826.69;;;12.10;48.11
64683;BME280;51107;47.652;19.016;2023-04-19T01:15:12;99831.13;;;12.10;47.75
64683;BME280;51107;47.652;19.016;2023-04-19T01:17:41;99823.78;;;12.13;47.03
64683;BME280;51107;47.652;19.016;2023-04-19T01:20:09;99806.34;;;12.22;47.08
64683;BME280;51107;47.652;19.016;2023-04-19T01:22:38;99817.06;;;12.11;47.11
64683;BME280;51107;47.652;19.016;2023-04-19T01:25:07;99808.09;;;12.13;46.15
64683;BME280;51107;47.652;19.016;2023-04-19T01:27:36;99801.94;;;12.31;45.70
64683;BME280;51107;47.652;19.016;2023-04-19T01:30:05;99801.44;;;12.27;46.17
64683;BME280;51107;47.652;19.016;2023-04-19T01:32:33;99799.31;;;12.22;46.39
64683;BME280;51107;47.652;19.016;2023-04-19T01:35:01;99794.28;;;12.29;46.40
64683;BME280;51107;47.652;19.016;2023-04-19T01:37:34;99800.47;;;12.28;46.26
64683;BME280;51107;47.652;19.016;2023-04-19T01:40:04;99796.03;;;12.12;47.35
64683;BME280;51107;47.652;19.016;2023-04-19T01:42:32;99792.75;;;12.02;47.43
64683;BME280;51107;47.652;19.016;2023-04-19T01:45:01;99793.44;;;12.12;46.41
64683;BME280;51107;47.652;19.016;2023-04-19T01:47:29;99795.47;;;11.92;47.92
64683;BME280;51107;47.652;19.016;2023-04-19T01:49:58;99788.81;;;11.98;47.56
64683;BME280;51107;47.652;19.016;2023-04-19T01:52:26;99793.22;;;11.97;47.57
64683;BME280;51107;47.652;19.016;2023-04-19T01:54:54;99776.38;;;11.92;47.88
64683;BME280;51107;47.652;19.016;2023-04-19T01:57:23;99782.97;;;12.04;47.67
64683;BME280;51107;47.652;19.016;2023-04-19T01:59:52;99773.09;;;11.89;47.80
64683;BME280;51107;47.652;19.016;2023-04-19T02:02:21;99781.09;;;11.88;48.11
64683;BME280;51107;47.652;19.016;2023-04-19T02:04:49;99788.31;;;11.94;47.96
64683;BME280;51107;47.652;19.016;2023-04-19T02:07:17;99775.13;;;12.04;47.46
64683;BME280;51107;47.652;19.016;2023-04-19T02:09:46;99786.47;;;11.86;47.95
64683;BME280;51107;47.652;19.016;2023-04-19T02:12:14;99783.34;;;11.83;48.97
64683;BME280;51107;47.652;19.016;2023-04-19T02:14:43;99781.56;;;11.75;48.57
64683;BME280;51107;47.652;19.016;2023-04-19T02:17:12;99778.81;;;11.85;48.05
64683;BME280;51107;47.652;19.016;2023-04-19T02:19:40;99777.25;;;11.66;48.51
64683;BME280;51107;47.652;19.016;2023-04-19T02:22:08;99773.22;;;11.80;48.03
64683;BME280;51107;47.652;19.016;2023-04-19T02:24:39;99770.53;;;11.98;47.62
64683;BME280;51107;47.652;19.016;2023-04-19T02:27:07;99760.84;;;11.82;48.61
64683;BME280;51107;47.652;19.016;2023-04-19T02:29:37;99774.97;;;11.63;49.21
64683;BME280;51107;47.652;19.016;2023-04-19T02:32:05;99775.59;;;11.56;49.38
64683;BME280;51107;47.652;19.016;2023-04-19T02:34:34;99770.13;;;11.42;50.58
64683;BME280;51107;47.652;19.016;2023-04-19T02:37:03;99772.31;;;11.46;50.83
64683;BME280;51107;47.652;19.016;2023-04-19T02:39:31;99768.41;;;11.50;50.98
64683;BME280;51107;47.652;19.016;2023-04-19T02:42:01;99759.81;;;11.32;51.79
64683;BME280;51107;47.652;19.016;2023-04-19T02:44:29;99765.63;;;11.17;52.24
64683;BME280;51107;47.652;19.016;2023-04-19T02:46:58;99752.31;;;11.29;51.86
64683;BME280;51107;47.652;19.016;2023-04-19T02:49:26;99758.00;;;11.24;51.86
64683;BME280;51107;47.652;19.016;2023-04-19T02:51:55;99757.66;;;10.93;53.71
64683;BME280;51107;47.652;19.016;2023-04-19T02:54:24;99757.66;;;10.93;53.31
64683;BME280;51107;47.652;19.016;2023-04-19T02:56:52;99757.13;;;10.89;54.05
64683;BME280;51107;47.652;19.016;2023-04-19T02:59:21;99743.50;;;10.95;53.26
64683;BME280;51107;47.652;19.016;2023-04-19T03:01:49;99746.41;;;10.92;54.16
64683;BME280;51107;47.652;19.016;2023-04-19T03:04:18;99738.41;;;10.85;54.15
64683;BME280;51107;47.652;19.016;2023-04-19T03:06:47;99737.13;;;10.90;54.28
64683;BME280;51107;47.652;19.016;2023-04-19T03:09:15;99737.56;;;10.85;54.42
64683;BME280;51107;47.652;19.016;2023-04-19T03:11:43;99734.22;;;10.93;53.92
64683;BME280;51107;47.652;19.016;2023-04-19T03:14:12;99728.47;;;10.89;54.01
64683;BME280;51107;47.652;19.016;2023-04-19T03:16:41;99726.13;;;11.04;53.49
64683;BME280;51107;47.652;19.016;2023-04-19T03:19:09;99723.72;;;11.11;53.20
64683;BME280;51107;47.652;19.016;2023-04-19T03:21:38;99719.03;;;11.14;52.94
64683;BME280;51107;47.652;19.016;2023-04-19T03:24:07;99718.50;;;11.11;53.38
64683;BME280;51107;47.652;19.016;2023-04-19T03:26:35;99708.69;;;11.04;53.51
64683;BME280;51107;47.652;19.016;2023-04-19T03:29:04;99714.41;;;11.08;53.57
64683;BME280;51107;47.652;19.016;2023-04-19T03:31:33;99708.50;;;10.98;54.19
64683;BME280;51107;47.652;19.016;2023-04-19T03:34:02;99712.13;;;11.05;53.91
64683;BME280;51107;47.652;19.016;2023-04-19T03:36:32;99711.25;;;10.96;54.40
64683;BME280;51107;47.652;19.016;2023-04-19T03:39:02;99708.19;;;11.01;53.89
64683;BME280;51107;47.652;19.016;2023-04-19T03:41:30;99705.38;;;10.94;54.78
64683;BME280;51107;47.652;19.016;2023-04-19T03:43:59;99710.03;;;10.82;55.22
64683;BME280;51107;47.652;19.016;2023-04-19T03:46:28;99712.84;;;10.63;55.44
64683;BME280;51107;47.652;19.016;2023-04-19T03:48:59;99702.25;;;10.64;55.55
64683;BME280;51107;47.652;19.016;2023-04-19T03:51:28;99700.81;;;10.96;52.71
64683;BME280;51107;47.652;19.016;2023-04-19T03:53:56;99700.31;;;10.93;52.79
64683;BME280;51107;47.652;19.016;2023-04-19T03:56:25;99692.16;;;10.87;53.57
64683;BME280;51107;47.652;19.016;2023-04-19T03:58:53;99700.53;;;10.99;52.15
64683;BME280;51107;47.652;19.016;2023-04-19T04:01:22;99703.13;;;10.99;52.60
64683;BME280;51107;47.652;19.016;2023-04-19T04:03:54;99698.63;;;10.83;54.34
64683;BME280;51107;47.652;19.016;2023-04-19T04:06:23;99711.41;;;10.68;53.82
64683;BME280;51107;47.652;19.016;2023-04-19T04:08:51;99702.53;;;10.35;56.97
64683;BME280;51107;47.652;19.016;2023-04-19T04:11:20;99702.31;;;10.10;59.30
64683;BME280;51107;47.652;19.016;2023-04-19T04:13:48;99702.00;;;9.77;60.27
64683;BME280;51107;47.652;19.016;2023-04-19T04:16:17;99707.78;;;9.71;61.61
64683;BME280;51107;47.652;19.016;2023-04-19T04:18:47;99711.84;;;9.74;61.55
64683;BME280;51107;47.652;19.016;2023-04-19T04:21:15;99711.75;;;9.75;61.52
64683;BME280;51107;47.652;19.016;2023-04-19T04:23:45;99708.31;;;9.75;61.66
64683;BME280;51107;47.652;19.016;2023-04-19T04:26:15;99699.91;;;9.63;61.71
64683;BME280;51107;47.652;19.016;2023-04-19T04:28:44;99703.34;;;9.81;63.22
64683;BME280;51107;47.652;19.016;2023-04-19T04:31:13;99696.41;;;9.72;62.48
64683;BME280;51107;47.652;19.016;2023-04-19T04:33:45;99707.19;;;9.77;63.59
64683;BME280;51107;47.652;19.016;2023-04-19T04:36:14;99701.25;;;9.67;62.23
64683;BME280;51107;47.652;19.016;2023-04-19T04:38:43;99702.59;;;9.71;61.76
64683;BME280;51107;47.652;19.016;2023-04-19T04:41:11;99710.25;;;9.73;61.77
64683;BME280;51107;47.652;19.016;2023-04-19T04:43:40;99692.03;;;9.73;63.09
64683;BME280;51107;47.652;19.016;2023-04-19T04:46:12;99699.31;;;9.69;63.39
64683;BME280;51107;47.652;19.016;2023-04-19T04:48:41;99696.03;;;9.67;63.88
64683;BME280;51107;47.652;19.016;2023-04-19T04:51:09;99695.56;;;9.54;65.75
64683;BME280;51107;47.652;19.016;2023-04-19T04:53:38;99695.91;;;9.68;65.57
64683;BME280;51107;47.652;19.016;2023-04-19T04:56:08;99694.09;;;9.69;65.77
64683;BME280;51107;47.652;19.016;2023-04-19T04:58:36;99694.19;;;9.77;64.22
64683;BME280;51107;47.652;19.016;2023-04-19T05:01:05;99690.19;;;9.83;65.44
64683;BME280;51107;47.652;19.016;2023-04-19T05:03:35;99695.84;;;9.96;67.15
64683;BME280;51107;47.652;19.016;2023-04-19T05:06:04;99699.31;;;10.05;65.96
64683;BME280;51107;47.652;19.016;2023-04-19T05:08:43;99696.00;;;10.13;66.88
64683;BME280;51107;47.652;19.016;2023-04-19T05:11:12;99704.09;;;10.28;66.83
64683;BME280;51107;47.652;19.016;2023-04-19T05:13:41;99695.66;;;10.34;64.45
64683;BME280;51107;47.652;19.016;2023-04-19T05:16:09;99697.84;;;10.57;62.57
64683;BME280;51107;47.652;19.016;2023-04-19T05:18:39;99683.31;;;10.80;60.64
64683;BME280;51107;47.652;19.016;2023-04-19T05:21:07;99688.63;;;10.97;59.82
64683;BME280;51107;47.652;19.016;2023-04-19T05:23:37;99685.12;;;11.14;60.77
64683;BME280;51107;47.652;19.016;2023-04-19T05:26:06;99693.94;;;11.21;60.36
64683;BME280;51107;47.652;19.016;2023-04-19T05:28:34;99687.31;;;11.35;58.97
64683;BME280;51107;47.652;19.016;2023-04-19T05:31:03;99688.66;;;11.48;58.63
64683;BME280;51107;47.652;19.016;2023-04-19T05:33:33;99688.53;;;11.58;58.25
64683;BME280;51107;47.652;19.016;2023-04-19T05:36:01;99689.88;;;11.70;58.44
64683;BME280;51107;47.652;19.016;2023-04-19T05:38:29;99681.37;;;11.76;57.50
64683;BME280;51107;47.652;19.016;2023-04-19T05:41:02;99686.47;;;11.78;58.08
64683;BME280;51107;47.652;19.016;2023-04-19T05:43:31;99687.63;;;11.83;59.56
64683;BME280;51107;47.652;19.016;2023-04-19T05:46:00;99684.00;;;11.93;58.91
64683;BME280;51107;47.652;19.016;2023-04-19T05:48:29;99687.81;;;11.98;57.03
64683;BME280;51107;47.652;19.016;2023-04-19T05:50:59;99685.38;;;12.05;56.97
64683;BME280;51107;47.652;19.016;2023-04-19T05:53:29;99673.44;;;12.11;56.54
64683;BME280;51107;47.652;19.016;2023-04-19T05:55:57;99681.16;;;12.20;57.04
64683;BME280;51107;47.652;19.016;2023-04-19T05:58:26;99682.13;;;12.28;56.93
64683;BME280;51107;47.652;19.016;2023-04-19T06:00:55;99676.22;;;12.34;56.85
64683;BME280;51107;47.652;19.016;2023-04-19T06:03:23;99676.06;;;12.44;56.16
64683;BME280;51107;47.652;19.016;2023-04-19T06:05:58;99674.25;;;12.52;56.63
64683;BME280;51107;47.652;19.016;2023-04-19T06:08:28;99671.63;;;12.61;55.39
64683;BME280;51107;47.652;19.016;2023-04-19T06:10:56;99675.19;;;12.76;58.61
64683;BME280;51107;47.652;19.016;2023-04-19T06:13:35;99675.97;;;12.85;55.13
64683;BME280;51107;47.652;19.016;2023-04-19T06:16:04;99676.62;;;12.95;55.49
64683;BME280;51107;47.652;19.016;2023-04-19T06:18:33;99676.75;;;13.02;56.40
64683;BME280;51107;47.652;19.016;2023-04-19T06:21:01;99672.44;;;13.17;59.27
64683;BME280;51107;47.652;19.016;2023-04-19T06:23:29;99675.03;;;13.25;54.83
64683;BME280;51107;47.652;19.016;2023-04-19T06:25:57;99664.72;;;13.32;57.81
64683;BME280;51107;47.652;19.016;2023-04-19T06:28:26;99659.13;;;13.44;59.03
64683;BME280;51107;47.652;19.016;2023-04-19T06:30:54;99664.31;;;13.52;58.14
64683;BME280;51107;47.652;19.016;2023-04-19T06:33:23;99667.19;;;13.65;59.53
64683;BME280;51107;47.652;19.016;2023-04-19T06:35:51;99660.59;;;13.69;53.21
64683;BME280;51107;47.652;19.016;2023-04-19T06:38:19;99669.62;;;13.67;53.79
64683;BME280;51107;47.652;19.016;2023-04-19T06:40:48;99651.81;;;13.85;54.16
64683;BME280;51107;47.652;19.016;2023-04-19T06:43:16;99665.50;;;13.96;53.31
64683;BME280;51107;47.652;19.016;2023-04-19T06:45:45;99662.94;;;14.10;51.32
64683;BME280;51107;47.652;19.016;2023-04-19T06:48:13;99660.69;;;14.22;52.48
64683;BME280;51107;47.652;19.016;2023-04-19T06:50:42;99655.44;;;14.22;50.61
64683;BME280;51107;47.652;19.016;2023-04-19T06:53:10;99652.41;;;14.34;52.25
64683;BME280;51107;47.652;19.016;2023-04-19T06:55:38;99645.84;;;14.53;53.28
64683;BME280;51107;47.652;19.016;2023-04-19T06:58:06;99641.56;;;14.52;50.61
64683;BME280;51107;47.652;19.016;2023-04-19T07:00:38;99644.59;;;14.64;50.66
64683;BME280;51107;47.652;19.016;2023-04-19T07:03:06;99650.75;;;14.71;50.55
64683;BME280;51107;47.652;19.016;2023-04-19T07:05:35;99651.22;;;14.89;48.73
64683;BME280;51107;47.652;19.016;2023-04-19T07:08:03;99643.69;;;15.01;49.12
64683;BME280;51107;47.652;19.016;2023-04-19T07:10:32;99647.03;;;15.10;48.10
64683;BME280;51107;47.652;19.016;2023-04-19T07:13:00;99645.03;;;15.12;48.40
64683;BME280;51107;47.652;19.016;2023-04-19T07:15:29;99642.47;;;15.34;49.66
64683;BME280;51107;47.652;19.016;2023-04-19T07:17:57;99628.06;;;15.44;47.55
64683;BME280;51107;47.652;19.016;2023-04-19T07:20:25;99638.53;;;15.81;49.28
64683;BME280;51107;47.652;19.016;2023-04-19T07:22:54;99643.37;;;16.06;47.82
64683;BME280;51107;47.652;19.016;2023-04-19T07:25:23;99635.09;;;16.30;47.26
64683;BME280;51107;47.652;19.016;2023-04-19T07:27:52;99632.25;;;16.60;47.70
64683;BME280;51107;47.652;19.016;2023-04-19T07:30:21;99630.63;;;16.59;48.65
64683;BME280;51107;47.652;19.016;2023-04-19T07:32:50;99636.56;;;16.68;47.09
64683;BME280;51107;47.652;19.016;2023-04-19T07:35:20;99629.47;;;16.69;46.77
64683;BME280;51107;47.652;19.016;2023-04-19T07:37:49;99641.41;;;16.36;45.48
64683;BME280;51107;47.652;19.016;2023-04-19T07:40:17;99626.87;;;16.75;48.52
64683;BME280;51107;47.652;19.016;2023-04-19T07:42:46;99636.28;;;16.56;44.25
64683;BME280;51107;47.652;19.016;2023-04-19T07:45:14;99635.28;;;16.92;45.83
64683;BME280;51107;47.652;19.016;2023-04-19T07:47:43;99638.38;;;17.03;43.02
64683;BME280;51107;47.652;19.016;2023-04-19T07:50:11;99638.56;;;16.94;41.07
64683;BME280;51107;47.652;19.016;2023-04-19T07:52:40;99634.84;;;17.30;40.83
64683;BME280;51107;47.652;19.016;2023-04-19T07:55:09;99635.94;;;17.08;42.09
64683;BME280;51107;47.652;19.016;2023-04-19T07:57:37;99639.69;;;16.85;41.86
64683;BME280;51107;47.652;19.016;2023-04-19T08:00:06;99627.41;;;16.57;43.37
64683;BME280;51107;47.652;19.016;2023-04-19T08:02:44;99634.44;;;17.34;43.09
64683;BME280;51107;47.652;19.016;2023-04-19T08:05:15;99631.78;;;17.34;41.73
64683;BME280;51107;47.652;19.016;2023-04-19T08:07:47;99624.97;;;16.56;43.03
64683;BME280;51107;47.652;19.016;2023-04-19T08:10:17;99632.88;;;16.62;42.71
64683;BME280;51107;47.652;19.016;2023-04-19T08:12:45;99623.28;;;16.48;41.99
64683;BME280;51107;47.652;19.016;2023-04-19T08:15:33;99629.78;;;16.52;41.97
64683;BME280;51107;47.652;19.016;2023-04-19T08:18:05;99631.78;;;16.50;41.17
64683;BME280;51107;47.652;19.016;2023-04-19T08:20:34;99612.47;;;16.29;40.98
64683;BME280;51107;47.652;19.016;2023-04-19T08:23:03;99618.56;;;15.87;40.97
64683;BME280;51107;47.652;19.016;2023-04-19T08:25:48;99618.47;;;16.52;41.45
64683;BME280;51107;47.652;19.016;2023-04-19T08:28:17;99622.03;;;16.79;41.05
64683;BME280;51107;47.652;19.016;2023-04-19T08:30:46;99619.97;;;17.03;42.12
64683;BME280;51107;47.652;19.016;2023-04-19T08:33:15;99627.87;;;17.16;40.52
64683;BME280;51107;47.652;19.016;2023-04-19T08:35:43;99621.41;;;17.19;39.81
64683;BME280;51107;47.652;19.016;2023-04-19T08:38:13;99626.16;;;17.50;39.94
64683;BME280;51107;47.652;19.016;2023-04-19T08:40:46;99625.47;;;17.21;41.11
64683;BME280;51107;47.652;19.016;2023-04-19T08:43:18;99628.81;;;17.50;40.14
64683;BME280;51107;47.652;19.016;2023-04-19T08:45:48;99624.91;;;16.84;41.83
64683;BME280;51107;47.652;19.016;2023-04-19T08:48:18;99624.22;;;16.69;43.13
64683;BME280;51107;47.652;19.016;2023-04-19T08:50:48;99627.19;;;16.59;44.62
64683;BME280;51107;47.652;19.016;2023-04-19T08:53:33;99616.72;;;16.66;45.17
64683;BME280;51107;47.652;19.016;2023-04-19T08:56:03;99631.25;;;16.96;43.21
64683;BME280;51107;47.652;19.016;2023-04-19T08:58:51;99629.88;;;17.76;42.37
64683;BME280;51107;47.652;19.016;2023-04-19T09:01:40;99621.19;;;17.95;41.55
64683;BME280;51107;47.652;19.016;2023-04-19T09:04:11;99609.97;;;18.54;41.74
64683;BME280;51107;47.652;19.016;2023-04-19T09:06:43;99623.00;;;18.15;42.95
64683;BME280;51107;47.652;19.016;2023-04-19T09:11:49;99604.56;;;19.00;42.95
64683;BME280;51107;47.652;19.016;2023-04-19T09:14:19;99606.38;;;19.07;40.52
64683;BME280;51107;47.652;19.016;2023-04-19T09:16:48;99607.16;;;19.07;41.25
64683;BME280;51107;47.652;19.016;2023-04-19T09:19:19;99598.13;;;18.83;40.42
64683;BME280;51107;47.652;19.016;2023-04-19T09:21:52;99596.50;;;18.75;42.95
64683;BME280;51107;47.652;19.016;2023-04-19T09:24:37;99592.75;;;19.74;42.66
64683;BME280;51107;47.652;19.016;2023-04-19T09:27:09;99591.81;;;19.93;41.36
64683;BME280;51107;47.652;19.016;2023-04-19T09:29:40;99596.78;;;19.76;40.77
64683;BME280;51107;47.652;19.016;2023-04-19T09:32:08;99589.81;;;20.14;40.20
64683;BME280;51107;47.652;19.016;2023-04-19T09:34:50;99594.31;;;19.56;34.50
64683;BME280;51107;47.652;19.016;2023-04-19T09:37:19;99592.47;;;20.14;41.39
64683;BME280;51107;47.652;19.016;2023-04-19T09:39:54;99583.66;;;20.39;39.44
64683;BME280;51107;47.652;19.016;2023-04-19T09:42:23;99588.03;;;19.82;40.38
64683;BME280;51107;47.652;19.016;2023-04-19T09:45:49;99580.53;;;20.05;41.18
64683;BME280;51107;47.652;19.016;2023-04-19T09:48:17;99584.03;;;19.98;39.61
64683;BME280;51107;47.652;19.016;2023-04-19T09:50:57;99589.25;;;20.05;40.52
64683;BME280;51107;47.652;19.016;2023-04-19T09:53:32;99585.78;;;20.30;39.42
64683;BME280;51107;47.652;19.016;2023-04-19T09:56:02;99590.63;;;19.89;39.93
64683;BME280;51107;47.652;19.016;2023-04-19T09:58:32;99588.34;;;20.36;43.53
64683;BME280;51107;47.652;19.016;2023-04-19T10:01:19;99589.75;;;20.39;38.17
64683;BME280;51107;47.652;19.016;2023-04-19T10:03:50;99585.72;;;20.36;38.93
64683;BME280;51107;47.652;19.016;2023-04-19T10:06:20;99584.41;;;19.77;39.64
64683;BME280;51107;47.652;19.016;2023-04-19T10:08:52;99583.63;;;19.06;41.06
64683;BME280;51107;47.652;19.016;2023-04-19T10:11:25;99582.56;;;19.77;41.78
64683;BME280;51107;47.652;19.016;2023-04-19T10:13:56;99586.44;;;19.75;38.09
64683;BME280;51107;47.652;19.016;2023-04-19T10:16:27;99584.28;;;19.33;39.82
64683;BME280;51107;47.652;19.016;2023-04-19T10:18:58;99582.63;;;20.21;41.92
64683;BME280;51107;47.652;19.016;2023-04-19T10:21:27;99580.56;;;19.73;38.23
64683;BME280;51107;47.652;19.016;2023-04-19T10:23:56;99580.16;;;19.12;40.46
64683;BME280;51107;47.652;19.016;2023-04-19T10:26:26;99577.25;;;19.52;43.40
64683;BME280;51107;47.652;19.016;2023-04-19T10:28:54;99580.69;;;20.10;42.53
64683;BME280;51107;47.652;19.016;2023-04-19T10:31:25;99571.09;;;20.15;40.14
64683;BME280;51107;47.652;19.016;2023-04-19T10:33:53;99565.72;;;20.59;42.42
64683;BME280;51107;47.652;19.016;2023-04-19T10:36:26;99564.47;;;20.25;43.75
64683;BME280;51107;47.652;19.016;2023-04-19T10:38:54;99566.00;;;20.14;40.96
64683;BME280;51107;47.652;19.016;2023-04-19T10:41:23;99560.94;;;19.62;45.05
64683;BME280;51107;47.652;19.016;2023-04-19T10:44:12;99560.06;;;19.68;42.03
64683;BME280;51107;47.652;19.016;2023-04-19T10:46:40;99555.97;;;19.15;43.17
64683;BME280;51107;47.652;19.016;2023-04-19T10:49:09;99564.00;;;18.81;43.69
64683;BME280;51107;47.652;19.016;2023-04-19T10:51:47;99557.00;;;18.48;45.55
64683;BME280;51107;47.652;19.016;2023-04-19T10:57:04;99554.88;;;18.05;45.84
64683;BME280;51107;47.652;19.016;2023-04-19T10:59:35;99550.78;;;18.36;48.52
64683;BME280;51107;47.652;19.016;2023-04-19T11:02:27;99551.37;;;18.38;47.05
64683;BME280;51107;47.652;19.016;2023-04-19T11:04:57;99557.84;;;18.42;48.03
64683;BME280;51107;47.652;19.016;2023-04-19T11:07:27;99544.66;;;18.42;48.28
64683;BME280;51107;47.652;19.016;2023-04-19T11:10:03;99549.81;;;18.24;48.08
64683;BME280;51107;47.652;19.016;2023-04-19T11:12:33;99552.47;;;17.77;48.80
64683;BME280;51107;47.652;19.016;2023-04-19T11:15:01;99552.41;;;17.37;48.20
64683;BME280;51107;47.652;19.016;2023-04-19T11:17:30;99552.84;;;17.47;47.14
64683;BME280;51107;47.652;19.016;2023-04-19T11:20:01;99550.41;;;17.39;48.88
64683;BME280;51107;47.652;19.016;2023-04-19T11:22:37;99542.88;;;17.42;48.09
64683;BME280;51107;47.652;19.016;2023-04-19T11:25:14;99551.22;;;17.59;47.37
64683;BME280;51107;47.652;19.016;2023-04-19T11:27:46;99542.09;;;17.82;48.60
64683;BME280;51107;47.652;19.016;2023-04-19T11:30:17;99545.19;;;17.92;47.50
64683;BME280;51107;47.652;19.016;2023-04-19T11:32:54;99544.75;;;18.09;47.55
64683;BME280;51107;47.652;19.016;2023-04-19T11:35:25;99546.59;;;17.95;46.08
64683;BME280;51107;47.652;19.016;2023-04-19T11:37:55;99548.00;;;17.77;46.73
64683;BME280;51107;47.652;19.016;2023-04-19T11:40:25;99546.75;;;17.60;48.73
64683;BME280;51107;47.652;19.016;2023-04-19T11:42:55;99542.31;;;17.67;48.30
64683;BME280;51107;47.652;19.016;2023-04-19T11:45:29;99547.97;;;17.51;46.19
64683;BME280;51107;47.652;19.016;2023-04-19T11:48:04;99542.28;;;17.27;46.14
64683;BME280;51107;47.652;19.016;2023-04-19T11:53:17;99536.59;;;17.37;47.55
64683;BME280;51107;47.652;19.016;2023-04-19T11:55:50;99537.00;;;17.20;48.73
64683;BME280;51107;47.652;19.016;2023-04-19T12:11:25;99542.63;;;16.97;50.31
64683;BME280;51107;47.652;19.016;2023-04-19T12:14:11;99540.38;;;16.94;50.74
64683;BME280;51107;47.652;19.016;2023-04-19T12:16:40;99533.34;;;17.21;49.93
64683;BME280;51107;47.652;19.016;2023-04-19T12:19:14;99536.00;;;17.35;49.97
64683;BME280;51107;47.652;19.016;2023-04-19T12:21:45;99536.22;;;17.33;50.18
64683;BME280;51107;47.652;19.016;2023-04-19T12:24:14;99540.19;;;17.02;49.48
64683;BME280;51107;47.652;19.016;2023-04-19T12:26:54;99535.75;;;17.16;51.30
64683;BME280;51107;47.652;19.016;2023-04-19T12:29:29;99535.78;;;17.23;50.09
64683;BME280;51107;47.652;19.016;2023-04-19T12:31:57;99525.78;;;16.91;50.48
64683;BME280;51107;47.652;19.016;2023-04-19T12:34:26;99529.78;;;16.87;49.80
64683;BME280;51107;47.652;19.016;2023-04-19T12:36:55;99528.97;;;16.87;51.96
64683;BME280;51107;47.652;19.016;2023-04-19T12:39:24;99525.19;;;16.89;47.55
64683;BME280;51107;47.652;19.016;2023-04-19T12:41:53;99525.94;;;16.83;49.31
64683;BME280;51107;47.652;19.016;2023-04-19T12:44:22;99519.56;;;16.57;49.87
64683;BME280;51107;47.652;19.016;2023-04-19T12:46:50;99522.56;;;16.54;50.69
64683;BME280;51107;47.652;19.016;2023-04-19T12:49:19;99521.97;;;16.52;50.34
64683;BME280;51107;47.652;19.016;2023-04-19T12:51:47;99523.19;;;16.50;49.02
64683;BME280;51107;47.652;19.016;2023-04-19T12:54:16;99533.78;;;16.70;49.93
64683;BME280;51107;47.652;19.016;2023-04-19T12:56:44;99522.41;;;16.56;47.78
64683;BME280;51107;47.652;19.016;2023-04-19T12:59:13;99517.78;;;16.64;49.61
64683;BME280;51107;47.652;19.016;2023-04-19T13:01:42;99512.72;;;16.63;47.76
64683;BME280;51107;47.652;19.016;2023-04-19T13:04:11;99511.72;;;16.71;48.45
64683;BME280;51107;47.652;19.016;2023-04-19T13:06:39;99520.34;;;16.93;45.62
64683;BME280;51107;47.652;19.016;2023-04-19T13:09:08;99520.66;;;16.83;46.38
64683;BME280;51107;47.652;19.016;2023-04-19T13:11:40;99513.94;;;16.67;44.97
64683;BME280;51107;47.652;19.016;2023-04-19T13:14:10;99517.66;;;16.86;44.79
64683;BME280;51107;47.652;19.016;2023-04-19T13:16:39;99515.94;;;17.07;45.48
64683;BME280;51107;47.652;19.016;2023-04-19T13:19:07;99515.59;;;16.81;47.03
64683;BME280;51107;47.652;19.016;2023-04-19T13:21:35;99518.19;;;16.61;50.10
64683;BME280;51107;47.652;19.016;2023-04-19T13:24:04;99514.97;;;16.73;48.87
64683;BME280;51107;47.652;19.016;2023-04-19T13:26:33;99515.38;;;16.70;49.91